createdAt,value
2018-09-28T00:01:21.524Z,16.00
2018-09-28T00:03:50.128Z,16.00
2018-09-28T00:06:18.696Z,16.00
2018-09-28T00:08:47.676Z,15.90
2018-09-28T00:11:16.246Z,15.90
2018-09-28T00:13:45.911Z,15.90
2018-09-28T00:16:14.611Z,15.90
2018-09-28T00:18:43.136Z,16.00
2018-09-28T00:21:11.832Z,15.90
2018-09-28T00:23:40.486Z,15.90
2018-09-28T00:26:09.135Z,15.90
2018-09-28T00:28:37.967Z,15.90
2018-09-28T00:31:07.679Z,15.90
2018-09-28T00:33:35.963Z,15.80
2018-09-28T00:36:04.674Z,15.70
2018-09-28T00:38:33.328Z,15.80
2018-09-28T00:41:01.869Z,15.70
2018-09-28T00:43:30.455Z,15.60
2018-09-28T00:45:58.985Z,15.60
2018-09-28T00:48:27.587Z,15.60
2018-09-28T00:50:56.220Z,15.60
2018-09-28T00:53:25.072Z,15.60
2018-09-28T00:55:53.744Z,15.50
2018-09-28T00:58:22.217Z,15.50
2018-09-28T01:00:50.883Z,15.50
2018-09-28T01:03:19.504Z,15.50
2018-09-28T01:05:48.001Z,15.40
2018-09-28T01:08:16.648Z,15.40
2018-09-28T01:10:45.274Z,15.40
2018-09-28T01:13:14.293Z,15.50
2018-09-28T01:15:42.909Z,15.40
2018-09-28T01:18:11.441Z,15.40
2018-09-28T01:21:43.651Z,15.40
2018-09-28T01:24:12.760Z,15.30
2018-09-28T01:26:41.447Z,15.30
2018-09-28T01:29:10.060Z,15.20
2018-09-28T01:31:38.914Z,15.20
2018-09-28T01:34:07.908Z,15.10
2018-09-28T01:36:36.828Z,15.10
2018-09-28T01:39:06.417Z,15.10
2018-09-28T01:41:35.430Z,15.00
2018-09-28T01:44:04.061Z,15.00
2018-09-28T01:46:32.801Z,15.00
2018-09-28T01:49:02.408Z,15.00
2018-09-28T01:51:30.920Z,15.00
2018-09-28T01:53:59.444Z,14.90
2018-09-28T01:56:29.223Z,14.80
2018-09-28T01:58:57.670Z,14.80
2018-09-28T02:01:26.308Z,14.80
2018-09-28T02:03:54.934Z,14.70
2018-09-28T02:06:23.551Z,14.70
2018-09-28T02:08:52.340Z,14.70
2018-09-28T02:11:20.956Z,14.70
2018-09-28T02:13:49.295Z,14.70
2018-09-28T02:16:17.764Z,14.70
2018-09-28T02:18:46.294Z,14.70
2018-09-28T02:21:15.009Z,14.70
2018-09-28T02:23:44.524Z,14.70
2018-09-28T02:26:13.253Z,14.60
2018-09-28T02:28:41.989Z,14.60
2018-09-28T02:31:10.860Z,14.60
2018-09-28T02:33:39.604Z,14.60
2018-09-28T02:36:08.361Z,14.60
2018-09-28T02:38:36.836Z,14.50
2018-09-28T02:41:05.770Z,14.50
2018-09-28T02:43:35.125Z,14.50
2018-09-28T02:46:03.779Z,14.50
2018-09-28T02:48:32.486Z,14.40
2018-09-28T02:51:01.148Z,14.30
2018-09-28T02:53:29.766Z,14.40
2018-09-28T02:55:58.540Z,14.30
2018-09-28T02:58:27.253Z,14.30
2018-09-28T03:00:55.856Z,14.30
2018-09-28T03:03:24.524Z,14.30
2018-09-28T03:05:53.003Z,14.30
2018-09-28T03:08:21.536Z,14.20
2018-09-28T03:10:50.164Z,14.20
2018-09-28T03:13:18.770Z,14.10
2018-09-28T03:15:47.400Z,14.10
2018-09-28T03:18:16.343Z,14.10
2018-09-28T03:20:44.690Z,14.00
2018-09-28T03:23:13.289Z,14.00
2018-09-28T03:25:42.352Z,14.00
2018-09-28T03:28:10.906Z,14.00
2018-09-28T03:30:39.513Z,14.00
2018-09-28T03:33:08.124Z,13.90
2018-09-28T03:35:36.770Z,13.90
2018-09-28T03:38:05.500Z,13.90
2018-09-28T03:40:34.138Z,13.90
2018-09-28T03:43:02.828Z,13.90
2018-09-28T03:45:31.432Z,13.90
2018-09-28T03:48:00.294Z,13.90
2018-09-28T03:50:29.245Z,13.90
2018-09-28T03:52:57.548Z,13.80
2018-09-28T03:55:26.178Z,13.80
2018-09-28T03:57:55.315Z,13.80
2018-09-28T04:00:23.862Z,13.80
2018-09-28T04:02:52.432Z,13.70
2018-09-28T04:05:21.080Z,13.70
2018-09-28T04:07:49.533Z,13.70
2018-09-28T04:10:18.371Z,13.60
2018-09-28T04:12:46.592Z,13.60
2018-09-28T04:15:16.866Z,13.60
2018-09-28T04:17:44.957Z,13.60
2018-09-28T04:20:13.540Z,13.60
2018-09-28T04:22:42.061Z,13.60
2018-09-28T04:25:10.751Z,13.50
2018-09-28T04:27:40.370Z,13.50
2018-09-28T04:30:09.117Z,13.50
2018-09-28T04:32:37.777Z,13.50
2018-09-28T04:35:06.465Z,13.50
2018-09-28T04:37:35.182Z,13.50
2018-09-28T04:40:03.857Z,13.50
2018-09-28T04:42:32.604Z,13.50
2018-09-28T04:45:01.544Z,13.40
2018-09-28T04:47:32.809Z,13.40
2018-09-28T04:50:01.854Z,13.40
2018-09-28T04:52:30.278Z,13.30
2018-09-28T04:54:58.800Z,13.40
2018-09-28T04:57:27.336Z,13.40
2018-09-28T04:59:55.868Z,13.30
2018-09-28T05:02:24.644Z,13.30
2018-09-28T05:04:53.364Z,13.30
2018-09-28T05:07:22.501Z,13.30
2018-09-28T05:09:51.367Z,13.20
2018-09-28T05:12:20.716Z,13.20
2018-09-28T05:14:49.217Z,13.30
2018-09-28T05:17:18.069Z,13.20
2018-09-28T05:19:46.638Z,13.20
2018-09-28T05:22:15.349Z,13.20
2018-09-28T05:24:43.703Z,13.20
2018-09-28T05:27:13.428Z,13.20
2018-09-28T05:29:42.124Z,13.20
2018-09-28T05:32:10.872Z,13.10
2018-09-28T05:34:39.397Z,13.10
2018-09-28T05:37:07.890Z,13.10
2018-09-28T05:39:36.501Z,13.10
2018-09-28T05:42:05.001Z,13.10
2018-09-28T05:46:02.768Z,13.10
2018-09-28T05:48:31.274Z,13.10
2018-09-28T05:50:59.950Z,12.90
2018-09-28T05:53:28.543Z,12.90
2018-09-28T05:55:57.071Z,12.90
2018-09-28T05:58:31.187Z,12.90
2018-09-28T06:01:04.978Z,12.90
2018-09-28T06:03:40.350Z,12.90
2018-09-28T06:06:08.459Z,12.80
2018-09-28T06:08:37.460Z,12.80
2018-09-28T06:11:07.461Z,12.80
2018-09-28T06:13:36.677Z,12.80
2018-09-28T06:16:05.393Z,12.70
2018-09-28T06:18:37.117Z,12.80
2018-09-28T06:21:05.760Z,12.70
2018-09-28T06:23:34.445Z,12.80
2018-09-28T06:26:04.051Z,12.80
2018-09-28T06:28:32.816Z,12.80
2018-09-28T06:31:02.160Z,12.70
2018-09-28T06:33:31.056Z,12.80
2018-09-28T06:35:59.681Z,12.80
2018-09-28T06:38:28.158Z,12.70
2018-09-28T06:41:01.038Z,12.70
2018-09-28T06:43:29.376Z,12.80
2018-09-28T06:45:57.908Z,12.80
2018-09-28T06:48:26.559Z,12.90
2018-09-28T06:50:55.282Z,12.90
2018-09-28T06:53:23.963Z,12.90
2018-09-28T06:55:52.532Z,13.00
2018-09-28T06:58:21.450Z,13.00
2018-09-28T07:00:49.685Z,13.10
2018-09-28T07:03:18.216Z,13.10
2018-09-28T07:05:50.254Z,13.20
2018-09-28T07:08:18.742Z,13.30
2018-09-28T07:10:47.580Z,13.30
2018-09-28T07:13:16.629Z,13.30
2018-09-28T07:15:45.765Z,13.40
2018-09-28T07:18:15.605Z,13.40
2018-09-28T07:20:43.788Z,13.50
2018-09-28T07:23:12.429Z,13.50
2018-09-28T07:25:41.076Z,13.50
2018-09-28T07:28:10.340Z,13.50
2018-09-28T07:30:39.153Z,13.50
2018-09-28T07:33:07.852Z,13.60
2018-09-28T07:35:36.852Z,13.60
2018-09-28T07:38:05.489Z,13.70
2018-09-28T07:40:33.801Z,13.70
2018-09-28T07:43:02.440Z,13.80
2018-09-28T07:45:31.071Z,13.90
2018-09-28T07:48:00.013Z,14.00
2018-09-28T07:50:28.308Z,14.00
2018-09-28T07:52:56.981Z,14.10
2018-09-28T07:55:25.489Z,14.20
2018-09-28T07:57:54.216Z,14.20
2018-09-28T08:00:22.936Z,14.30
2018-09-28T08:02:51.406Z,14.30
2018-09-28T08:05:20.000Z,14.30
2018-09-28T08:07:49.313Z,14.30
2018-09-28T08:10:18.386Z,14.30
2018-09-28T08:12:46.989Z,14.30
2018-09-28T08:15:15.826Z,14.30
2018-09-28T08:17:44.134Z,14.30
2018-09-28T08:20:12.937Z,14.30
2018-09-28T08:22:41.493Z,14.40
2018-09-28T08:25:11.132Z,14.50
2018-09-28T08:27:40.232Z,14.50
2018-09-28T08:30:11.699Z,14.60
2018-09-28T08:32:47.829Z,14.60
2018-09-28T08:35:16.969Z,14.70
2018-09-28T08:37:46.623Z,14.70
2018-09-28T08:40:20.805Z,14.70
2018-09-28T08:42:59.556Z,14.90
2018-09-28T08:45:31.967Z,15.00
2018-09-28T08:48:01.201Z,15.10
2018-09-28T08:50:35.647Z,15.10
2018-09-28T08:53:04.677Z,15.20
2018-09-28T08:55:33.307Z,15.20
2018-09-28T08:58:02.035Z,15.10
2018-09-28T09:00:37.051Z,15.00
2018-09-28T09:03:05.296Z,15.00
2018-09-28T09:05:34.796Z,14.90
2018-09-28T09:08:06.344Z,15.00
2018-09-28T09:10:35.132Z,15.10
2018-09-28T09:13:03.650Z,15.20
2018-09-28T09:15:32.405Z,15.40
2018-09-28T09:18:06.475Z,15.50
2018-09-28T09:20:35.581Z,15.60
2018-09-28T09:23:03.936Z,15.60
2018-09-28T09:25:36.970Z,15.80
2018-09-28T09:28:06.273Z,16.00
2018-09-28T09:30:34.902Z,15.70
2018-09-28T09:33:03.641Z,15.60
2018-09-28T09:35:32.374Z,15.50
2018-09-28T09:38:00.865Z,15.40
2018-09-28T09:40:29.652Z,15.60
2018-09-28T09:42:58.152Z,15.90
2018-09-28T09:45:26.711Z,16.00
2018-09-28T09:47:55.359Z,16.20
2018-09-28T09:50:23.972Z,16.30
2018-09-28T09:52:52.641Z,16.30
2018-09-28T09:55:22.629Z,16.40
2018-09-28T09:57:51.861Z,16.50
2018-09-28T10:00:25.973Z,16.40
2018-09-28T10:03:06.273Z,16.40
2018-09-28T10:05:35.495Z,16.40
2018-09-28T10:08:04.223Z,16.40
2018-09-28T10:10:32.939Z,16.60
2018-09-28T10:13:01.475Z,16.50
2018-09-28T10:15:33.308Z,16.60
2018-09-28T10:18:01.825Z,16.80
2018-09-28T10:20:30.534Z,16.80
2018-09-28T10:22:59.069Z,16.80
2018-09-28T10:25:27.725Z,16.90
2018-09-28T10:27:56.505Z,16.90
2018-09-28T10:30:24.993Z,16.80
2018-09-28T10:32:57.049Z,17.00
2018-09-28T10:35:25.344Z,17.30
2018-09-28T10:37:54.072Z,17.30
2018-09-28T10:40:22.823Z,17.30
2018-09-28T10:42:51.473Z,17.30
2018-09-28T10:45:20.565Z,17.30
2018-09-28T10:47:49.670Z,16.90
2018-09-28T10:50:18.237Z,16.80
2018-09-28T10:52:46.972Z,16.60
2018-09-28T10:55:15.531Z,16.20
2018-09-28T10:57:44.077Z,16.10
2018-09-28T11:00:12.866Z,15.80
2018-09-28T11:02:41.468Z,15.80
2018-09-28T11:05:22.203Z,15.60
2018-09-28T11:07:52.073Z,15.60
2018-09-28T11:10:23.812Z,15.60
2018-09-28T11:12:53.185Z,15.80
2018-09-28T11:15:31.235Z,16.00
2018-09-28T11:18:09.360Z,16.00
2018-09-28T11:20:40.976Z,16.10
2018-09-28T11:23:10.696Z,16.10
2018-09-28T11:25:44.928Z,16.30
2018-09-28T11:28:16.065Z,16.40
2018-09-28T11:30:44.827Z,16.60
2018-09-28T11:33:18.831Z,16.80
2018-09-28T11:35:47.997Z,17.10
2018-09-28T11:38:29.752Z,17.30
2018-09-28T11:40:58.890Z,17.30
2018-09-28T11:43:28.639Z,17.00
2018-09-28T11:45:57.135Z,16.70
2018-09-28T11:48:25.788Z,16.50
2018-09-28T11:50:59.999Z,16.30
2018-09-28T11:53:29.135Z,16.20
2018-09-28T11:55:57.864Z,16.00
2018-09-28T11:58:26.568Z,16.30
2018-09-28T12:00:55.465Z,16.60
2018-09-28T12:03:23.942Z,16.90
2018-09-28T12:05:52.722Z,17.10
2018-09-28T12:08:27.562Z,17.20
2018-09-28T12:10:56.721Z,17.20
2018-09-28T12:13:25.304Z,17.40
2018-09-28T12:16:00.402Z,17.60
2018-09-28T12:18:34.939Z,17.70
2018-09-28T12:21:03.944Z,17.20
2018-09-28T12:23:32.671Z,17.00
2018-09-28T12:26:01.492Z,17.20
2018-09-28T12:28:30.030Z,17.20
2018-09-28T12:30:58.482Z,16.90
2018-09-28T12:33:27.081Z,16.70
2018-09-28T12:35:55.762Z,16.60
2018-09-28T12:38:24.180Z,16.50
2018-09-28T12:40:52.841Z,16.70
2018-09-28T12:43:22.752Z,16.90
2018-09-28T12:45:51.963Z,17.20
2018-09-28T12:48:20.923Z,17.10
2018-09-28T12:50:49.643Z,17.30
2018-09-28T12:53:18.257Z,17.30
2018-09-28T12:55:46.812Z,17.30
2018-09-28T12:58:15.486Z,17.70
2018-09-28T13:00:44.128Z,18.00
2018-09-28T13:03:12.684Z,17.90
2018-09-28T13:05:41.469Z,17.60
2018-09-28T13:08:09.953Z,17.50
2018-09-28T13:10:38.606Z,17.80
2018-09-28T13:13:07.040Z,17.90
2018-09-28T13:15:35.679Z,17.70
2018-09-28T13:18:09.976Z,17.50
2018-09-28T13:20:39.148Z,17.30
2018-09-28T13:23:07.766Z,17.00
2018-09-28T13:25:37.160Z,16.70
2018-09-28T13:28:06.080Z,16.50
2018-09-28T13:30:35.659Z,16.50
2018-09-28T13:33:04.428Z,16.80
2018-09-28T13:35:33.156Z,17.00
2018-09-28T13:38:01.843Z,17.40
2018-09-28T13:40:30.380Z,17.60
2018-09-28T13:42:59.352Z,17.20
2018-09-28T13:45:28.490Z,16.90
2018-09-28T13:47:57.245Z,16.80
2018-09-28T13:50:25.867Z,16.60
2018-09-28T13:52:59.980Z,16.60
2018-09-28T13:55:29.090Z,16.70
2018-09-28T13:57:57.653Z,16.50
2018-09-28T14:00:26.299Z,16.80
2018-09-28T14:02:54.753Z,16.80
2018-09-28T14:05:23.410Z,16.80
2018-09-28T14:07:52.268Z,16.90
2018-09-28T14:10:20.940Z,16.90
2018-09-28T14:12:49.502Z,17.00
2018-09-28T14:15:18.241Z,17.00
2018-09-28T14:17:53.209Z,16.80
2018-09-28T14:20:22.493Z,16.90
2018-09-28T14:22:51.371Z,16.90
2018-09-28T14:25:20.473Z,17.00
2018-09-28T14:27:50.030Z,16.70
2018-09-28T14:30:18.733Z,16.70
2018-09-28T14:32:47.701Z,16.90
2018-09-28T14:35:16.868Z,16.70
2018-09-28T14:37:45.323Z,16.80
2018-09-28T14:40:13.843Z,17.10
2018-09-28T14:42:42.622Z,16.80
2018-09-28T14:45:11.451Z,17.00
2018-09-28T14:47:39.767Z,17.00
2018-09-28T14:50:11.424Z,17.00
2018-09-28T14:52:40.262Z,16.60
2018-09-28T14:55:09.062Z,16.80
2018-09-28T14:57:37.792Z,16.80
2018-09-28T15:00:06.990Z,16.90
2018-09-28T15:02:35.547Z,17.00
2018-09-28T15:05:04.043Z,16.90
2018-09-28T15:07:32.737Z,16.90
2018-09-28T15:10:01.330Z,16.70
2018-09-28T15:12:31.305Z,17.00
2018-09-28T15:14:59.900Z,16.90
2018-09-28T15:17:28.722Z,16.90
2018-09-28T15:20:00.661Z,17.00
2018-09-28T15:22:29.094Z,17.00
2018-09-28T15:24:57.793Z,17.10
2018-09-28T15:27:26.156Z,16.80
2018-09-28T15:29:54.693Z,16.90
2018-09-28T15:32:23.350Z,17.00
2018-09-28T15:34:51.922Z,17.10
2018-09-28T15:37:20.553Z,17.00
2018-09-28T15:39:49.217Z,16.80
2018-09-28T15:42:17.839Z,16.70
2018-09-28T15:44:50.058Z,16.50
2018-09-28T15:47:21.475Z,16.70
2018-09-28T15:49:55.406Z,16.70
2018-09-28T15:52:24.392Z,16.70
2018-09-28T15:54:53.011Z,16.70
2018-09-28T15:57:21.759Z,16.70
2018-09-28T15:59:50.480Z,16.70
2018-09-28T16:02:19.277Z,16.70
2018-09-28T16:04:53.577Z,16.70
2018-09-28T16:07:22.748Z,16.80
2018-09-28T16:09:51.425Z,17.10
2018-09-28T16:12:25.570Z,17.20
2018-09-28T16:14:57.638Z,17.30
2018-09-28T16:17:29.332Z,17.40
2018-09-28T16:19:58.964Z,17.30
2018-09-28T16:22:33.152Z,17.10
2018-09-28T16:25:04.689Z,17.10
2018-09-28T16:27:33.145Z,17.10
2018-09-28T16:30:02.078Z,17.10
2018-09-28T16:32:31.620Z,17.00
2018-09-28T16:34:59.939Z,16.80
2018-09-28T16:37:28.576Z,16.50
2018-09-28T16:39:57.200Z,16.20
2018-09-28T16:42:26.045Z,15.90
2018-09-28T16:44:55.587Z,15.70
2018-09-28T16:47:24.256Z,15.50
2018-09-28T16:49:54.312Z,15.30
2018-09-28T16:52:22.732Z,15.10
2018-09-28T16:54:51.423Z,14.90
2018-09-28T16:57:20.251Z,14.80
2018-09-28T16:59:48.544Z,14.70
2018-09-28T17:02:17.414Z,14.50
2018-09-28T17:04:53.712Z,14.40
2018-09-28T17:07:33.832Z,14.20
2018-09-28T17:10:08.145Z,14.10
2018-09-28T17:12:43.077Z,14.00
2018-09-28T17:15:15.053Z,13.80
2018-09-28T17:17:43.647Z,13.70
2018-09-28T17:20:12.207Z,13.60
2018-09-28T17:22:43.102Z,13.60
2018-09-28T17:25:12.484Z,13.50
2018-09-28T17:27:48.316Z,13.40
2018-09-28T17:30:21.994Z,13.30
2018-09-28T17:32:52.016Z,13.20
2018-09-28T17:35:30.252Z,13.10
2018-09-28T17:38:00.782Z,12.90
2018-09-28T17:40:30.022Z,12.80
2018-09-28T17:43:05.316Z,12.80
2018-09-28T17:45:39.205Z,12.70
2018-09-28T17:53:29.472Z,12.50
2018-09-28T17:55:58.197Z,12.40
2018-09-28T18:03:56.786Z,12.30
2018-09-28T18:06:26.356Z,12.10
2018-09-28T18:08:54.878Z,12.10
2018-09-28T18:11:24.645Z,12.00
2018-09-28T18:13:53.192Z,12.00
2018-09-28T18:16:21.752Z,12.00
2018-09-28T18:24:20.945Z,11.90
2018-09-28T18:26:49.975Z,11.80
2018-09-28T18:31:57.588Z,11.60
2018-09-28T18:34:26.202Z,11.60
2018-09-28T18:36:55.756Z,11.50
2018-09-28T18:39:33.726Z,11.50
2018-09-28T18:42:04.494Z,11.40
2018-09-28T18:44:33.568Z,11.50
2018-09-28T18:47:03.137Z,11.40
2018-09-28T18:49:43.772Z,11.40
2018-09-28T18:57:24.593Z,11.40
2018-09-28T18:59:54.196Z,11.30
2018-09-28T19:02:22.907Z,11.20
2018-09-28T19:04:52.432Z,11.20
2018-09-28T19:07:20.976Z,11.20
2018-09-28T19:09:49.784Z,11.10
2018-09-28T19:12:20.767Z,11.10
2018-09-28T19:14:49.072Z,11.10
2018-09-28T19:17:17.976Z,11.10
2018-09-28T19:19:48.632Z,11.00
2018-09-28T19:22:17.803Z,11.00
2018-09-28T19:24:46.456Z,11.00
2018-09-28T19:27:15.017Z,11.00
2018-09-28T19:29:43.908Z,11.00
2018-09-28T19:32:12.232Z,10.90
2018-09-28T19:34:40.760Z,10.90
2018-09-28T19:37:09.546Z,10.90
2018-09-28T19:39:39.061Z,10.80
2018-09-28T19:42:07.688Z,10.80
2018-09-28T19:44:36.316Z,10.70
2018-09-28T19:47:04.879Z,10.70
2018-09-28T19:52:11.293Z,10.60
2018-09-28T19:54:39.893Z,10.50
2018-09-28T19:59:55.249Z,10.40
2018-09-28T20:02:24.118Z,10.30
2018-09-28T20:04:52.413Z,10.30
2018-09-28T20:07:30.628Z,10.30
2018-09-28T20:09:58.849Z,10.20
2018-09-28T20:12:28.372Z,10.20
2018-09-28T20:16:23.419Z,10.10
2018-09-28T20:18:54.746Z,10.10
2018-09-28T20:21:24.391Z,10.00
2018-09-28T20:23:53.048Z,10.00
2018-09-28T20:29:04.560Z,9.90
2018-09-28T20:31:33.686Z,9.80
2018-09-28T20:34:02.652Z,9.80
2018-09-28T20:36:31.467Z,9.80
2018-09-28T20:39:00.773Z,9.70
2018-09-28T20:41:30.507Z,9.70
2018-09-28T20:43:59.037Z,9.70
2018-09-28T20:46:27.708Z,9.60
2018-09-28T20:48:56.365Z,9.60
2018-09-28T20:51:37.061Z,9.60
2018-09-28T20:54:05.736Z,9.60
2018-09-28T20:56:34.058Z,9.60
2018-09-28T20:59:03.094Z,9.60
2018-09-28T21:01:43.655Z,9.50
2018-09-28T21:06:48.166Z,9.50
2018-09-28T21:09:17.968Z,9.40
2018-09-28T21:12:00.012Z,9.40
2018-09-28T21:14:29.210Z,9.40
2018-09-28T21:16:57.909Z,9.30
2018-09-28T21:19:28.888Z,9.30
2018-09-28T21:21:58.109Z,9.20
2018-09-28T21:24:27.725Z,9.20
2018-09-28T21:32:05.265Z,9.10
2018-09-28T21:34:34.011Z,9.10
2018-09-28T21:37:07.138Z,9.00
2018-09-28T21:39:36.286Z,9.00
2018-09-28T21:42:04.883Z,9.00
2018-09-28T21:44:33.428Z,9.00
2018-09-28T21:47:02.148Z,8.90
2018-09-28T21:49:30.553Z,8.90
2018-09-28T21:51:59.192Z,8.80
2018-09-28T21:54:27.868Z,8.80
2018-09-28T21:57:09.830Z,8.70
2018-09-28T21:59:39.046Z,8.70
2018-09-28T22:02:07.633Z,8.70
2018-09-28T22:07:11.082Z,8.60
2018-09-28T22:09:39.666Z,8.50
2018-09-28T22:12:08.176Z,8.50
2018-09-28T22:14:36.941Z,8.50
2018-09-28T22:17:08.550Z,8.50
2018-09-28T22:19:37.171Z,8.40
2018-09-28T22:22:05.845Z,8.40
2018-09-28T22:24:34.353Z,8.30
2018-09-28T22:27:03.034Z,8.40
2018-09-28T22:29:31.853Z,8.30
2018-09-28T22:32:00.641Z,8.30
2018-09-28T22:34:29.012Z,8.30
2018-09-28T22:36:57.611Z,8.30
2018-09-28T22:39:26.259Z,8.30
2018-09-28T22:41:54.772Z,8.30
2018-09-28T22:44:23.491Z,8.40
2018-09-28T22:46:52.456Z,8.40
2018-09-28T22:49:21.606Z,8.50
2018-09-28T22:51:50.033Z,8.50
2018-09-28T22:54:19.661Z,8.50
2018-09-28T22:59:24.364Z,8.60
2018-09-28T23:01:53.566Z,8.70
2018-09-28T23:06:57.080Z,8.70
2018-09-28T23:09:25.851Z,8.80
2018-09-28T23:11:54.354Z,8.80
2018-09-28T23:14:22.974Z,8.80
2018-09-28T23:16:51.593Z,8.90
2018-09-28T23:19:20.364Z,8.90
2018-09-28T23:21:48.905Z,8.90
2018-09-28T23:24:17.388Z,9.00
2018-09-28T23:26:46.196Z,9.00
2018-09-28T23:29:15.073Z,9.00
2018-09-28T23:31:43.774Z,9.00
2018-09-28T23:34:13.258Z,9.00
2018-09-28T23:36:41.670Z,9.00
2018-09-28T23:39:10.972Z,9.10
2018-09-28T23:44:16.876Z,9.00
2018-09-28T23:46:46.124Z,9.00
2018-09-28T23:49:14.872Z,9.00
2018-09-28T23:51:43.685Z,8.90
2018-09-28T23:54:12.310Z,8.90
2018-09-28T23:56:41.948Z,8.90
2018-09-28T23:59:10.764Z,8.90
